Time;durP1;ratioP1;P1;durP2;ratioP2;P2;SDS_P1;SDS_P2;PMS_P1;PMS_P2;Temp;Humidity;BMP_temperature;BMP_pressure;BME280_temperature;BME280_humidity;BME280_pressure;Samples;Min_cycle;Max_cycle;Signal;HPM_P1;HPM_P2
2022/05/13 00:01:46;;;;;;;5.93;4.43;;;;;;;18.26;84.65;97007.53;5055680;28;20210;-49
2022/05/13 00:04:15;;;;;;;4.28;3.97;;;;;;;18.22;84.59;97016.94;5068426;28;20207;-50
2022/05/13 00:06:42;;;;;;;5.63;4.25;;;;;;;18.18;84.68;97004.94;5079881;28;20210;-49
2022/05/13 00:09:09;;;;;;;4.47;4.10;;;;;;;18.13;85.71;97018.03;5076059;28;20192;-49
2022/05/13 00:11:35;;;;;;;4.93;4.25;;;;;;;18.08;86.15;97015.91;5061568;28;20239;-49
2022/05/13 00:14:03;;;;;;;4.85;4.45;;;;;;;18.01;87.75;97014.13;5059199;28;20207;-50
2022/05/13 00:16:34;;;;;;;4.95;4.47;;;;;;;18.03;87.65;97028.19;5056545;28;20203;-50
2022/05/13 00:19:03;;;;;;;5.25;4.80;;;;;;;18.04;88.75;97027.13;5055660;28;20207;-50
2022/05/13 00:21:31;;;;;;;5.07;4.68;;;;;;;18.01;90.17;97027.50;5056785;28;20203;-49
2022/05/13 00:23:57;;;;;;;6.80;4.78;;;;;;;17.96;94.00;97021.88;5055433;28;20231;-49
2022/05/13 00:26:25;;;;;;;5.00;4.50;;;;;;;17.93;93.72;97015.03;5056486;28;20207;-50
2022/05/13 00:28:52;;;;;;;9.20;5.22;;;;;;;17.97;93.59;97012.81;5056093;28;20207;-50
2022/05/13 00:31:20;;;;;;;5.18;4.57;;;;;;;17.94;93.45;97007.81;5056199;28;20604;-50
2022/05/13 00:33:48;;;;;;;5.57;5.05;;;;;;;17.95;92.99;97004.16;5043369;28;20222;-49
2022/05/13 00:36:15;;;;;;;5.05;4.65;;;;;;;17.97;92.45;97002.13;5056265;28;20218;-50
2022/05/13 00:38:41;;;;;;;4.75;4.35;;;;;;;17.97;91.88;96997.59;5055497;28;20260;-50
2022/05/13 00:41:08;;;;;;;5.00;4.57;;;;;;;17.98;91.32;96998.44;5056198;28;20210;-49
2022/05/13 00:43:47;;;;;;;5.40;4.75;;;;;;;17.95;91.92;96993.44;5056544;28;20635;-49
2022/05/13 00:46:15;;;;;;;8.02;5.03;;;;;;;17.87;92.33;96991.66;5056489;28;20556;-50
2022/05/13 00:48:43;;;;;;;5.13;4.72;;;;;;;17.82;94.51;96981.50;5057018;28;20203;-50
2022/05/13 00:51:12;;;;;;;7.95;5.00;;;;;;;17.86;93.70;96980.13;5056327;28;20203;-49
2022/05/13 00:53:40;;;;;;;6.85;5.05;;;;;;;17.83;93.21;96983.16;5056045;28;20238;-50
2022/05/13 00:56:09;;;;;;;7.07;4.82;;;;;;;17.72;94.31;96974.72;5056274;28;20210;-49
2022/05/13 00:58:37;;;;;;;5.40;4.93;;;;;;;17.52;96.24;96969.00;5055615;28;20222;-50
2022/05/13 01:01:04;;;;;;;5.50;4.93;;;;;;;17.50;97.26;96973.69;5062749;28;20218;-49
2022/05/13 01:03:31;;;;;;;6.30;5.00;;;;;;;17.45;97.82;96970.72;5062112;28;20267;-49
2022/05/13 01:06:03;;;;;;;5.88;5.28;;;;;;;17.44;98.71;96969.06;5057387;28;20703;-50
2022/05/13 01:08:32;;;;;;;5.97;5.13;;;;;;;17.49;98.19;96966.69;5059121;28;20219;-50
2022/05/13 01:11:00;;;;;;;5.55;5.05;;;;;;;17.43;99.36;96965.53;5066032;28;20213;-50
2022/05/13 01:13:29;;;;;;;6.85;5.45;;;;;;;17.46;99.25;96959.03;5057830;28;20226;-49
2022/05/13 01:15:58;;;;;;;5.47;4.97;;;;;;;17.52;98.22;96960.97;5046498;28;20207;-49
2022/05/13 01:18:27;;;;;;;7.05;5.25;;;;;;;17.54;97.58;96953.59;5054270;28;20218;-50
2022/05/13 01:20:56;;;;;;;7.03;5.60;;;;;;;17.53;97.49;96951.13;5055302;28;20537;-49
2022/05/13 01:23:30;;;;;;;5.55;5.00;;;;;;;17.49;98.12;96944.47;5055159;28;20231;-49
2022/05/13 01:26:01;;;;;;;6.13;5.07;;;;;;;17.46;97.91;96940.31;5055567;28;20202;-50
2022/05/13 01:28:30;;;;;;;6.10;4.90;;;;;;;17.46;96.59;96940.31;5055705;28;20203;-50
2022/05/13 01:30:58;;;;;;;5.53;5.00;;;;;;;17.39;98.02;96929.47;5055490;28;20250;-50
2022/05/13 01:33:28;;;;;;;6.15;5.18;;;;;;;17.46;96.47;96940.31;5054819;28;20238;-48
2022/05/13 01:35:57;;;;;;;6.80;5.03;;;;;;;17.40;96.29;96943.69;5055291;28;20655;-49
2022/05/13 01:38:27;;;;;;;6.40;5.28;;;;;;;17.38;95.23;96943.03;5055076;28;20654;-49
2022/05/13 01:40:54;;;;;;;5.47;4.97;;;;;;;17.35;96.25;96949.59;5055171;28;20234;-51
2022/05/13 01:43:21;;;;;;;6.43;5.10;;;;;;;17.36;96.14;96953.06;5055049;28;20572;-49
2022/05/13 01:45:48;;;;;;;4.93;4.60;;;;;;;17.38;95.95;96949.22;5054372;28;20217;-49
2022/05/13 01:48:17;;;;;;;5.20;4.75;;;;;;;17.41;95.39;96948.88;5055228;28;20222;-48
2022/05/13 01:50:44;;;;;;;5.63;4.60;;;;;;;17.41;94.89;96942.69;5055046;28;20293;-49
2022/05/13 01:53:12;;;;;;;4.93;4.50;;;;;;;17.40;95.45;96946.34;5055137;28;20218;-50
2022/05/13 01:55:45;;;;;;;6.07;4.90;;;;;;;17.36;96.56;96939.69;5055078;28;20599;-49
2022/05/13 01:58:13;;;;;;;6.22;5.20;;;;;;;17.34;95.53;96936.38;5055041;28;20199;-49
2022/05/13 02:00:41;;;;;;;5.40;4.88;;;;;;;17.35;95.50;96941.56;5054527;28;20217;-49
2022/05/13 02:05:52;;;;;;;4.80;4.43;;;;;;;17.37;95.50;96936.03;5054543;28;20524;-50
2022/05/13 02:08:18;;;;;;;5.20;4.57;;;;;;;17.35;94.68;96944.22;5054861;28;20646;-49
2022/05/13 02:10:46;;;;;;;6.55;4.32;;;;;;;17.36;94.98;96935.19;5054997;28;20218;-50
2022/05/13 02:13:14;;;;;;;5.72;4.70;;;;;;;17.36;94.70;96937.03;5054817;28;20245;-49
2022/05/13 02:15:42;;;;;;;5.88;4.55;;;;;;;17.39;94.86;96944.72;5054785;28;20202;-50
2022/05/13 02:18:09;;;;;;;4.80;4.40;;;;;;;17.41;94.84;96942.69;5054359;28;20206;-49
2022/05/13 02:20:37;;;;;;;5.15;4.53;;;;;;;17.37;94.29;96946.72;5054853;28;20234;-50
2022/05/13 02:23:03;;;;;;;6.88;4.65;;;;;;;17.41;93.83;96937.31;5072882;28;20226;-50
2022/05/13 02:25:30;;;;;;;5.18;4.68;;;;;;;17.37;94.96;96936.03;5057815;28;20256;-50
2022/05/13 02:27:58;;;;;;;6.63;4.50;;;;;;;17.40;95.24;96941.00;5069335;28;20241;-51
2022/05/13 02:30:26;;;;;;;5.95;4.65;;;;;;;17.43;92.95;96933.47;5055723;28;20253;-49
2022/05/13 02:32:54;;;;;;;4.68;4.28;;;;;;;17.47;92.54;96935.78;5053726;28;20311;-49
2022/05/13 02:35:20;;;;;;;6.68;4.15;;;;;;;17.46;92.36;96940.31;5040869;28;20214;-49
2022/05/13 02:37:49;;;;;;;6.32;4.78;;;;;;;17.47;91.75;96930.41;5054814;28;20211;-49
2022/05/13 02:40:16;;;;;;;4.80;4.40;;;;;;;17.44;91.40;96931.63;5054359;28;20227;-49
2022/05/13 02:42:42;;;;;;;4.78;4.30;;;;;;;17.46;91.38;96937.63;5054285;28;20199;-49
2022/05/13 02:45:11;;;;;;;5.18;4.13;;;;;;;17.45;92.09;96938.66;5053849;28;20207;-50
2022/05/13 02:47:38;;;;;;;5.13;4.63;;;;;;;17.43;93.27;96938.81;5057198;28;20211;-49
2022/05/13 02:50:21;;;;;;;5.38;4.70;;;;;;;17.47;92.88;96947.31;5056833;28;20203;-50
2022/05/13 02:52:49;;;;;;;5.43;4.22;;;;;;;17.47;92.23;96936.59;5057870;28;20547;-50
2022/05/13 02:55:16;;;;;;;5.20;4.70;;;;;;;17.52;91.24;96944.94;5058786;28;20213;-50
2022/05/13 02:57:43;;;;;;;4.93;4.53;;;;;;;17.54;91.38;96936.72;5057776;28;20666;-49
2022/05/13 03:00:14;;;;;;;4.80;4.38;;;;;;;17.57;90.53;96942.56;5058181;28;20241;-50
2022/05/13 03:02:43;;;;;;;5.07;4.47;;;;;;;17.58;90.10;96941.56;5057983;28;20635;-49
2022/05/13 03:05:10;;;;;;;5.70;4.57;;;;;;;17.57;90.29;96937.22;5057904;28;20257;-49
2022/05/13 03:07:39;;;;;;;4.68;4.25;;;;;;;17.57;90.41;96942.56;5057667;28;20647;-50
2022/05/13 03:10:08;;;;;;;4.65;4.25;;;;;;;17.54;90.78;96942.91;5057654;28;20203;-50
2022/05/13 03:12:35;;;;;;;6.15;4.80;;;;;;;17.56;90.71;96946.28;5057009;28;20306;-50
2022/05/13 03:15:01;;;;;;;6.57;4.68;;;;;;;17.58;90.42;96954.94;5057695;28;20639;-49
2022/05/13 03:17:45;;;;;;;5.40;4.60;;;;;;;17.61;89.21;96954.56;5057244;28;20222;-50
2022/05/13 03:20:17;;;;;;;5.15;4.75;;;;;;;17.66;89.21;96951.38;5057734;28;20258;-49
2022/05/13 03:22:43;;;;;;;4.85;4.45;;;;;;;17.70;87.51;96952.69;5040048;28;20231;-48
2022/05/13 03:25:10;;;;;;;4.90;4.50;;;;;;;17.78;84.37;96956.09;5057679;28;20203;-50
2022/05/13 03:27:39;;;;;;;4.57;4.18;;;;;;;17.81;84.48;96954.94;5056677;28;20280;-49
2022/05/13 03:30:08;;;;;;;7.18;4.57;;;;;;;17.82;85.14;96957.41;5057324;28;20505;-50
2022/05/13 03:32:36;;;;;;;5.35;4.43;;;;;;;17.85;84.67;96957.06;5055647;28;20238;-50
2022/05/13 03:35:05;;;;;;;5.03;4.53;;;;;;;17.88;84.50;96956.72;5057088;28;20202;-50
2022/05/13 03:37:31;;;;;;;4.75;4.35;;;;;;;17.92;84.24;96945.66;5057441;28;20590;-50
2022/05/13 03:39:58;;;;;;;5.75;4.68;;;;;;;17.95;83.55;96955.97;5056825;28;20644;-50
2022/05/13 03:42:24;;;;;;;4.78;4.40;;;;;;;17.97;82.99;96948.59;5057156;28;20199;-49
2022/05/13 03:44:50;;;;;;;4.97;4.43;;;;;;;18.01;82.23;96944.53;5057035;28;20207;-50
2022/05/13 03:47:19;;;;;;;5.47;4.53;;;;;;;18.00;82.48;96941.03;5056767;28;20511;-49
2022/05/13 03:49:48;;;;;;;4.93;4.43;;;;;;;18.01;83.18;96934.69;5057045;28;20211;-50
2022/05/13 03:52:17;;;;;;;5.05;4.55;;;;;;;17.97;85.48;96928.03;5056800;28;20211;-50
2022/05/13 03:54:43;;;;;;;5.38;4.97;;;;;;;17.94;86.70;96939.09;5057040;28;20249;-50
2022/05/13 03:57:10;;;;;;;5.53;4.97;;;;;;;17.92;86.71;96941.13;5056059;28;20210;-50
2022/05/13 03:59:40;;;;;;;15.02;13.48;;;;;;;17.88;86.81;96940.66;5043543;28;20308;-50
2022/05/13 04:02:07;;;;;;;6.05;5.55;;;;;;;17.92;86.38;96943.81;5056810;28;20257;-50
2022/05/13 04:08:56;;;;;;;5.10;4.68;;;;;;;17.86;86.46;96942.66;5056636;28;20509;-51
2022/05/13 04:10:09;;;;;;;5.05;4.65;;;;;;;17.79;87.27;96949.75;5056775;28;20202;-52
2022/05/13 04:18:04;;;;;;;4.75;4.35;;;;;;;17.75;87.27;96966.34;5056482;28;20642;-50
2022/05/13 04:20:34;;;;;;;4.50;4.20;;;;;;;17.74;87.19;96965.53;5056556;28;20219;-50
2022/05/13 04:23:03;;;;;;;5.97;5.45;;;;;;;17.74;87.33;96960.19;5056396;28;20227;-51
2022/05/13 04:25:30;;;;;;;5.45;4.90;;;;;;;17.76;86.84;96974.19;5056215;28;20541;-50
2022/05/13 04:27:56;;;;;;;6.15;4.70;;;;;;;17.75;86.90;96980.53;5056423;28;20203;-51
2022/05/13 04:30:24;;;;;;;4.80;4.35;;;;;;;17.74;87.22;96970.03;5056640;28;20211;-50
2022/05/13 04:32:53;;;;;;;4.63;4.20;;;;;;;17.72;87.44;96962.19;5056464;28;20222;-50
2022/05/13 04:35:20;;;;;;;4.53;4.13;;;;;;;17.74;87.36;96972.72;5043409;28;20542;-49
2022/05/13 04:37:46;;;;;;;4.90;4.25;;;;;;;17.73;87.21;96961.19;5056526;28;20238;-50
2022/05/13 04:40:14;;;;;;;5.22;4.63;;;;;;;17.74;86.72;96959.34;5039468;28;20302;-50
2022/05/13 04:42:49;;;;;;;5.03;4.55;;;;;;;17.74;87.43;96954.84;5070187;28;20197;-49
2022/05/13 04:45:16;;;;;;;6.03;4.47;;;;;;;17.74;88.07;96960.19;5079539;28;20251;-51
2022/05/13 04:50:29;;;;;;;4.72;4.32;;;;;;;17.76;88.73;96957.31;5057941;28;20256;-49
2022/05/13 04:52:56;;;;;;;4.68;4.00;;;;;;;17.80;88.11;96964.81;5056270;28;20219;-50
2022/05/13 04:55:25;;;;;;;4.40;3.75;;;;;;;17.84;87.89;96958.09;5056787;28;20218;-50
2022/05/13 04:57:52;;;;;;;4.80;4.32;;;;;;;17.90;86.82;96967.22;5055986;28;20226;-51
2022/05/13 05:00:19;;;;;;;4.20;3.85;;;;;;;17.92;86.65;96971.38;5055866;28;20207;-48
2022/05/13 05:02:47;;;;;;;3.88;3.50;;;;;;;17.97;85.66;96972.69;5055659;28;20209;-50
2022/05/13 05:05:14;;;;;;;4.07;3.78;;;;;;;18.01;85.21;96971.31;5055869;28;20199;-50
2022/05/13 05:07:41;;;;;;;3.88;3.50;;;;;;;18.05;85.47;96973.44;5055137;28;20210;-50
2022/05/13 05:10:08;;;;;;;3.78;3.47;;;;;;;18.06;85.48;96963.56;5055580;28;20203;-50
2022/05/13 05:12:39;;;;;;;4.18;3.88;;;;;;;18.07;86.25;96975.91;5055542;28;20227;-50
2022/05/13 05:15:09;;;;;;;4.07;3.78;;;;;;;18.09;85.74;96981.94;5055706;28;20199;-50
2022/05/13 05:17:36;;;;;;;4.10;3.80;;;;;;;18.09;86.72;96977.44;5056645;28;20206;-50
2022/05/13 05:20:05;;;;;;;4.25;3.95;;;;;;;18.14;86.23;96982.25;5056521;28;20640;-50
2022/05/13 05:22:31;;;;;;;4.28;3.88;;;;;;;18.21;85.94;96988.53;5057597;28;20239;-49
2022/05/13 05:24:59;;;;;;;3.70;3.40;;;;;;;18.36;84.53;96981.34;5055358;28;20206;-51
2022/05/13 05:27:25;;;;;;;4.20;3.80;;;;;;;18.59;83.86;96989.34;5056002;28;20233;-50
2022/05/13 05:29:53;;;;;;;3.88;3.58;;;;;;;18.86;82.36;96986.00;5056042;28;20209;-50
2022/05/13 05:32:20;;;;;;;3.90;3.58;;;;;;;19.10;80.81;96996.41;5056197;28;20218;-51
2022/05/13 05:34:46;;;;;;;4.35;3.70;;;;;;;19.16;79.74;96990.31;5056117;28;20226;-50
2022/05/13 05:37:14;;;;;;;3.90;3.60;;;;;;;19.20;80.11;96996.94;5054484;28;20218;-50
2022/05/13 05:39:42;;;;;;;3.80;3.50;;;;;;;19.24;79.56;96986.66;5055289;28;20214;-51
2022/05/13 05:42:09;;;;;;;4.85;3.65;;;;;;;19.32;79.54;96984.72;5055759;28;20203;-50
2022/05/13 05:44:36;;;;;;;3.47;3.17;;;;;;;19.38;78.67;96988.47;5056086;28;20222;-51
2022/05/13 05:47:06;;;;;;;3.63;3.33;;;;;;;19.40;77.10;96986.44;5056783;28;20227;-50
2022/05/13 05:49:32;;;;;;;3.63;3.30;;;;;;;19.43;76.33;96986.09;5055009;28;20632;-50
2022/05/13 05:52:00;;;;;;;3.85;3.45;;;;;;;19.46;76.99;96984.88;5055801;28;20215;-50
2022/05/13 05:57:16;;;;;;;3.67;3.38;;;;;;;19.41;76.78;96993.53;5055302;28;20241;-50
2022/05/13 05:59:43;;;;;;;3.97;3.50;;;;;;;19.33;76.97;96985.53;5055464;28;20203;-51
2022/05/13 06:02:12;;;;;;;5.60;3.75;;;;;;;19.28;77.13;96988.78;5055148;28;20203;-51
2022/05/13 06:04:38;;;;;;;3.95;3.65;;;;;;;19.23;77.40;96995.75;5055980;28;20195;-50
2022/05/13 06:07:07;;;;;;;3.78;3.47;;;;;;;19.18;78.03;97003.50;5042286;28;20204;-50
2022/05/13 06:09:34;;;;;;;3.60;3.30;;;;;;;19.14;78.83;96989.66;5056408;28;20229;-51
2022/05/13 06:12:02;;;;;;;3.67;3.33;;;;;;;19.08;79.38;96986.91;5056378;28;20221;-51
2022/05/13 06:14:29;;;;;;;5.43;4.03;;;;;;;19.04;79.98;96985.59;5059108;28;20219;-50
2022/05/13 06:16:56;;;;;;;3.50;3.20;;;;;;;19.05;80.20;96989.94;5059690;28;20215;-50
2022/05/13 06:19:29;;;;;;;3.78;3.35;;;;;;;19.09;80.02;96996.59;5064330;28;20218;-49
2022/05/13 06:21:55;;;;;;;3.85;3.45;;;;;;;19.18;79.69;96984.75;5073480;28;20203;-50
2022/05/13 06:24:22;;;;;;;3.80;3.50;;;;;;;19.48;79.15;96996.28;5076572;28;20232;-51
2022/05/13 06:26:51;;;;;;;3.78;3.47;;;;;;;19.69;78.33;96990.91;5063707;28;20207;-52
2022/05/13 06:29:18;;;;;;;4.15;3.72;;;;;;;19.85;77.16;96999.53;5079838;28;20207;-53
2022/05/13 06:31:46;;;;;;;4.88;3.63;;;;;;;19.93;76.42;97003.13;5076863;28;20211;-56
2022/05/13 06:34:14;;;;;;;3.45;3.22;;;;;;;19.94;74.79;96999.41;5067395;28;20211;-51
2022/05/13 06:36:43;;;;;;;3.90;3.60;;;;;;;19.89;76.16;96999.97;5066335;28;20207;-51
2022/05/13 06:39:13;;;;;;;3.95;3.50;;;;;;;19.86;74.85;97001.22;5077561;28;20210;-50
2022/05/13 06:41:40;;;;;;;3.30;3.10;;;;;;;19.84;74.75;96997.88;5065702;28;20211;-51
2022/05/13 06:44:07;;;;;;;4.85;3.40;;;;;;;19.79;75.45;96997.63;5058544;28;20203;-50
2022/05/13 06:46:39;;;;;;;3.70;3.40;;;;;;;19.83;75.46;97003.44;5058553;28;20207;-50
2022/05/13 06:49:06;;;;;;;3.55;3.33;;;;;;;19.83;76.47;97011.50;5058581;28;20195;-50
2022/05/13 06:51:34;;;;;;;3.55;3.22;;;;;;;20.17;75.85;97013.44;5045087;28;20210;-50
2022/05/13 06:54:04;;;;;;;3.63;3.33;;;;;;;20.34;73.93;97007.63;5058156;28;20226;-51
2022/05/13 06:56:32;;;;;;;3.58;3.28;;;;;;;20.48;73.20;97013.09;5045456;28;20199;-50
2022/05/13 06:58:59;;;;;;;3.30;3.10;;;;;;;20.57;72.31;97011.94;5069874;28;20210;-50
2022/05/13 07:01:26;;;;;;;3.78;3.42;;;;;;;20.73;72.18;97007.06;5081011;28;20190;-50
2022/05/13 07:03:52;;;;;;;3.55;3.25;;;;;;;21.15;72.75;97011.44;5081948;28;20250;-49
2022/05/13 07:06:23;;;;;;;4.53;3.53;;;;;;;21.04;69.85;97013.88;5063150;28;20210;-49
2022/05/13 07:08:50;;;;;;;3.60;3.30;;;;;;;21.20;69.81;97011.69;5058284;28;20264;-50
2022/05/13 07:11:21;;;;;;;3.75;3.13;;;;;;;21.19;69.43;97011.88;5057204;28;20610;-50
2022/05/13 07:13:49;;;;;;;3.75;3.35;;;;;;;21.28;69.98;97021.47;5058140;28;20632;-50
2022/05/13 07:16:16;;;;;;;3.53;3.20;;;;;;;21.56;66.96;97024.88;5058274;28;20210;-49
2022/05/13 07:18:46;;;;;;;3.60;3.30;;;;;;;21.46;67.23;97028.97;5057926;28;20199;-49
2022/05/13 07:21:14;;;;;;;4.13;3.50;;;;;;;21.86;66.84;97021.84;5057946;28;20230;-50
2022/05/13 07:23:42;;;;;;;3.22;2.92;;;;;;;22.22;67.48;97025.00;5057428;28;20235;-50
2022/05/13 07:26:09;;;;;;;3.50;3.20;;;;;;;22.50;67.95;97025.63;5057866;28;20262;-50
2022/05/13 07:28:39;;;;;;;5.50;3.58;;;;;;;22.69;65.39;97027.53;5058018;28;20203;-50
2022/05/13 07:31:06;;;;;;;6.07;3.55;;;;;;;22.87;62.16;97017.94;5056066;28;20428;-50
2022/05/13 07:33:33;;;;;;;3.22;2.88;;;;;;;22.73;63.46;97027.94;5057171;28;20231;-50
2022/05/13 07:36:00;;;;;;;3.50;3.17;;;;;;;22.68;63.43;97028.56;5057734;28;20573;-49
2022/05/13 07:38:30;;;;;;;3.40;3.10;;;;;;;22.72;63.81;97027.09;5057759;28;20210;-50
2022/05/13 07:43:43;;;;;;;3.90;3.30;;;;;;;22.38;63.61;97030.00;5045807;28;20193;-50
2022/05/13 07:46:09;;;;;;;4.10;3.25;;;;;;;22.09;66.33;97025.00;5057633;28;20222;-50
2022/05/13 07:48:36;;;;;;;4.80;3.33;;;;;;;22.00;66.61;97032.44;5057736;28;20207;-50
2022/05/13 07:51:04;;;;;;;3.85;3.40;;;;;;;21.84;65.22;97030.13;5057477;28;20207;-49
2022/05/13 07:53:32;;;;;;;3.63;3.33;;;;;;;21.59;65.90;97032.53;5057195;28;20226;-51
2022/05/13 07:55:59;;;;;;;3.92;3.70;;;;;;;21.29;67.99;97036.59;5057231;28;20218;-50
2022/05/13 07:58:25;;;;;;;3.70;3.50;;;;;;;21.07;70.25;97024.22;5056524;28;20210;-50
2022/05/13 08:00:54;;;;;;;3.95;3.65;;;;;;;20.93;70.54;97027.88;5056127;28;20202;-50
2022/05/13 08:03:22;;;;;;;4.30;3.90;;;;;;;20.82;70.83;97018.50;5056804;28;20295;-50
2022/05/13 08:05:50;;;;;;;5.57;3.60;;;;;;;20.77;70.31;97018.25;5056705;28;20234;-50
2022/05/13 08:08:21;;;;;;;4.10;3.72;;;;;;;20.78;70.41;97010.00;5057433;28;20207;-50
2022/05/13 08:10:49;;;;;;;3.85;3.53;;;;;;;20.62;71.95;97022.91;5057245;28;20205;-49
2022/05/13 08:13:16;;;;;;;5.03;3.58;;;;;;;20.63;72.63;97032.63;5045712;28;20200;-50
2022/05/13 08:15:43;;;;;;;4.28;3.90;;;;;;;20.61;72.52;97045.44;5054918;28;20313;-50
2022/05/13 08:18:10;;;;;;;6.03;3.90;;;;;;;20.87;73.10;97052.88;5056797;28;20211;-49
2022/05/13 08:20:37;;;;;;;4.13;3.78;;;;;;;21.33;72.09;97035.13;5057045;28;20214;-51
2022/05/13 08:23:04;;;;;;;4.20;3.80;;;;;;;21.40;71.27;97033.28;5056501;28;20263;-50
2022/05/13 08:25:32;;;;;;;4.22;3.63;;;;;;;21.63;71.32;97036.50;5056546;28;20208;-51
2022/05/13 08:27:58;;;;;;;4.18;3.78;;;;;;;21.74;71.84;97033.22;5056889;28;20230;-49
2022/05/13 08:30:29;;;;;;;4.68;4.05;;;;;;;21.86;71.39;97036.13;5056150;28;20211;-51
2022/05/13 08:33:01;;;;;;;4.57;3.80;;;;;;;21.79;68.67;97040.66;5056896;28;20225;-51
2022/05/13 08:35:31;;;;;;;4.32;4.00;;;;;;;21.95;69.77;97042.19;5056404;28;20246;-50
2022/05/13 08:37:58;;;;;;;4.13;3.80;;;;;;;22.00;69.89;97040.53;5056678;28;20529;-50
2022/05/13 08:40:33;;;;;;;4.43;4.10;;;;;;;21.95;68.46;97044.88;5057629;28;20222;-50
2022/05/13 08:43:01;;;;;;;3.95;3.65;;;;;;;21.93;69.02;97046.97;5058163;28;20203;-50
2022/05/13 08:45:28;;;;;;;6.85;4.13;;;;;;;21.73;67.79;97042.31;5057013;28;20203;-49
2022/05/13 08:47:56;;;;;;;4.28;3.95;;;;;;;21.90;67.99;97052.69;5055399;28;20211;-51
2022/05/13 08:50:27;;;;;;;5.93;3.97;;;;;;;21.98;67.87;97055.25;5056458;28;20676;-50
2022/05/13 08:53:12;;;;;;;5.10;4.43;;;;;;;21.94;68.64;97043.22;5056293;28;20632;-50
2022/05/13 08:55:42;;;;;;;5.38;4.28;;;;;;;22.03;69.08;97042.00;5056012;28;20219;-50
2022/05/13 08:58:13;;;;;;;6.50;3.97;;;;;;;22.02;71.02;97049.25;5043421;28;20241;-50
2022/05/13 09:00:43;;;;;;;6.47;3.90;;;;;;;21.88;71.64;97044.00;5057287;28;20628;-49
2022/05/13 09:03:17;;;;;;;5.63;5.13;;;;;;;22.25;67.57;97060.47;5056039;28;20203;-49
2022/05/13 09:05:48;;;;;;;4.47;4.18;;;;;;;22.42;65.22;97052.81;5055858;28;20211;-49
2022/05/13 09:08:19;;;;;;;3.90;3.60;;;;;;;22.64;65.12;97062.31;5055803;28;20624;-50
2022/05/13 09:11:00;;;;;;;4.40;3.85;;;;;;;23.02;64.97;97061.69;5056005;28;20211;-50
2022/05/13 09:13:29;;;;;;;5.78;4.05;;;;;;;23.16;63.99;97055.22;5049100;28;20207;-50
2022/05/13 09:15:56;;;;;;;3.88;3.40;;;;;;;22.95;64.65;97052.78;5057021;28;20329;-49
2022/05/13 09:18:29;;;;;;;4.85;4.20;;;;;;;23.07;64.89;97069.97;5078926;28;20191;-50
2022/05/13 09:20:57;;;;;;;5.07;3.90;;;;;;;23.07;64.50;97078.91;5059195;28;20202;-50
2022/05/13 09:23:26;;;;;;;7.28;4.40;;;;;;;22.97;65.51;97074.97;5051643;28;20247;-51
2022/05/13 09:26:13;;;;;;;4.57;4.18;;;;;;;22.80;66.51;97078.13;5055475;28;20542;-50
2022/05/13 09:29:02;;;;;;;5.30;4.75;;;;;;;22.76;66.67;97078.75;5055761;28;20211;-50
2022/05/13 09:31:34;;;;;;;7.57;4.47;;;;;;;22.58;68.28;97079.34;5055970;28;20269;-50
2022/05/13 09:34:00;;;;;;;5.45;4.55;;;;;;;22.30;69.53;97086.78;5055856;28;20195;-49
2022/05/13 09:36:32;;;;;;;5.10;4.70;;;;;;;22.11;68.56;97087.56;5059695;28;20218;-50
2022/05/13 09:39:19;;;;;;;5.78;5.03;;;;;;;21.72;70.35;97089.09;5059280;28;20253;-50
2022/05/13 09:41:46;;;;;;;6.55;5.07;;;;;;;21.59;71.28;97088.22;5054447;28;20218;-51
2022/05/13 09:44:18;;;;;;;4.57;4.15;;;;;;;21.46;70.41;97094.41;5058861;28;20218;-52
2022/05/13 09:46:48;;;;;;;5.40;4.90;;;;;;;21.38;70.74;97085.66;5051112;28;20265;-49
2022/05/13 09:49:27;;;;;;;4.95;4.47;;;;;;;21.13;72.77;97104.13;5063583;28;20203;-51
2022/05/13 09:51:56;;;;;;;7.00;4.35;;;;;;;20.99;71.88;97096.97;5045344;28;20214;-50
2022/05/13 09:54:27;;;;;;;4.57;4.13;;;;;;;20.87;72.41;97101.25;5054866;28;20235;-50
2022/05/13 09:56:56;;;;;;;5.63;4.20;;;;;;;20.78;73.71;97097.88;5054223;28;20201;-50
2022/05/13 09:59:25;;;;;;;6.68;3.97;;;;;;;20.72;72.24;97096.81;5055638;28;20655;-49
2022/05/13 10:01:52;;;;;;;6.15;4.25;;;;;;;20.67;71.55;97101.94;5055472;28;20214;-50
2022/05/13 10:04:22;;;;;;;4.15;3.75;;;;;;;20.43;72.75;97096.97;5055446;28;20210;-50
2022/05/13 10:06:49;;;;;;;5.30;3.88;;;;;;;20.25;72.75;97110.00;5055769;28;20195;-50
2022/05/13 10:15:10;;;;;;;4.53;4.05;;;;;;;19.68;74.74;97102.78;5054822;28;20218;-49
2022/05/13 10:17:48;;;;;;;5.53;4.25;;;;;;;19.51;74.40;97098.66;5041728;28;20245;-50
2022/05/13 10:20:23;;;;;;;3.97;3.67;;;;;;;19.45;76.42;97096.69;5054915;28;20571;-49
2022/05/13 10:22:53;;;;;;;5.85;4.40;;;;;;;19.34;77.62;97094.50;5054443;28;20230;-53
2022/05/13 10:25:28;;;;;;;4.80;4.28;;;;;;;19.23;81.72;97089.59;5054517;28;20195;-50
2022/05/13 10:27:57;;;;;;;5.82;4.70;;;;;;;19.14;78.98;97094.22;5054670;28;20198;-52
2022/05/13 10:30:33;;;;;;;4.75;4.35;;;;;;;19.14;78.62;97090.69;5054473;28;20207;-51
2022/05/13 10:33:02;;;;;;;4.78;4.38;;;;;;;19.11;80.41;97091.91;5054122;28;20230;-50
2022/05/13 10:35:33;;;;;;;5.28;4.40;;;;;;;19.18;76.92;97098.19;5041663;28;20222;-50
2022/05/13 10:38:07;;;;;;;4.80;4.40;;;;;;;19.09;78.30;97095.78;5054961;28;20195;-49
2022/05/13 10:40:37;;;;;;;6.55;3.97;;;;;;;19.01;78.14;97098.56;5055723;28;20199;-49
2022/05/13 10:43:12;;;;;;;4.55;4.15;;;;;;;19.05;78.71;97099.84;5054676;28;20218;-50
2022/05/13 10:45:41;;;;;;;6.32;4.35;;;;;;;18.98;76.90;97099.78;5055565;28;20205;-50
2022/05/13 10:48:17;;;;;;;5.20;4.20;;;;;;;18.93;76.97;97094.13;5055370;28;20203;-51
2022/05/13 10:50:55;;;;;;;5.07;4.25;;;;;;;19.08;77.09;97094.13;5054279;28;20623;-49
2022/05/13 10:53:29;;;;;;;4.53;3.97;;;;;;;19.11;78.79;97093.75;5043058;28;20203;-50
2022/05/13 10:56:01;;;;;;;4.45;3.95;;;;;;;19.20;76.42;97087.28;5054837;28;20523;-50
2022/05/13 10:58:35;;;;;;;5.55;4.03;;;;;;;19.22;76.00;97082.56;5054641;28;20214;-49
2022/05/13 11:01:13;;;;;;;5.35;3.92;;;;;;;19.29;77.25;97078.13;5054598;28;20524;-50
2022/05/13 11:03:52;;;;;;;6.07;3.92;;;;;;;19.45;73.57;97077.13;5054059;28;20524;-50
2022/05/13 11:06:28;;;;;;;4.85;3.60;;;;;;;19.47;75.01;97083.97;5042540;28;20199;-50
2022/05/13 11:09:03;;;;;;;5.28;3.67;;;;;;;19.58;73.29;97077.28;5057976;28;20206;-50
2022/05/13 11:11:40;;;;;;;3.83;3.42;;;;;;;19.58;74.49;97086.16;5056536;28;20277;-50
2022/05/13 11:14:20;;;;;;;5.07;3.55;;;;;;;19.69;73.89;97079.47;5056741;28;20203;-50
2022/05/13 11:16:51;;;;;;;5.65;3.50;;;;;;;19.68;72.87;97075.13;5057945;28;20187;-49
2022/05/13 11:19:25;;;;;;;5.25;3.63;;;;;;;19.65;71.14;97076.34;5057890;28;20216;-49
2022/05/13 11:21:57;;;;;;;4.25;3.85;;;;;;;19.56;71.72;97082.81;5057866;28;20233;-50
2022/05/13 11:27:30;;;;;;;3.92;3.20;;;;;;;19.48;72.88;97079.44;5044657;28;20210;-49
2022/05/13 11:30:01;;;;;;;3.85;3.55;;;;;;;19.45;72.47;97080.59;5058214;28;20260;-50
2022/05/13 11:32:32;;;;;;;4.65;3.38;;;;;;;19.53;71.71;97077.81;5077995;28;20187;-50
2022/05/13 11:35:28;;;;;;;4.03;3.47;;;;;;;19.45;69.99;97072.56;5077269;28;20226;-49
2022/05/13 11:38:01;;;;;;;5.32;3.63;;;;;;;19.58;71.99;97074.59;5069505;28;20210;-49
2022/05/13 11:40:30;;;;;;;4.20;3.25;;;;;;;19.66;69.85;97074.50;5071479;28;20203;-50
2022/05/13 11:43:19;;;;;;;5.00;3.65;;;;;;;19.65;69.42;97070.97;5056770;28;20199;-50
2022/05/13 11:46:07;;;;;;;4.97;3.38;;;;;;;19.60;68.62;97076.06;5057600;28;20298;-50
2022/05/13 11:48:36;;;;;;;4.97;3.92;;;;;;;19.59;71.12;97085.13;5057659;28;20191;-49
2022/05/13 11:51:04;;;;;;;4.18;3.63;;;;;;;19.57;72.60;97080.97;5057632;28;20199;-50
2022/05/13 11:53:50;;;;;;;4.63;3.42;;;;;;;19.54;72.36;97084.88;5056650;28;20234;-50
2022/05/13 11:56:21;;;;;;;4.45;3.40;;;;;;;19.52;70.46;97080.72;5057668;28;20234;-50
2022/05/13 11:58:52;;;;;;;4.15;3.70;;;;;;;19.44;71.21;97072.78;5057188;28;20667;-50
2022/05/13 12:01:54;;;;;;;5.68;3.70;;;;;;;19.34;74.11;97084.56;5057642;28;20195;-51
2022/05/13 12:04:32;;;;;;;5.70;4.57;;;;;;;19.10;77.89;97081.34;5056413;28;20206;-51
2022/05/13 12:07:01;;;;;;;5.97;4.30;;;;;;;19.06;79.89;97091.63;5056695;28;20612;-50
2022/05/13 12:09:40;;;;;;;3.95;3.53;;;;;;;19.14;75.03;97083.50;5056884;28;20202;-51
2022/05/13 12:12:12;;;;;;;5.72;3.80;;;;;;;19.04;77.19;97082.94;5049692;28;20620;-50
2022/05/13 12:14:49;;;;;;;6.32;3.97;;;;;;;18.95;81.90;97083.22;5057538;28;20227;-50